EGGD/BRS METAR and TAF weather

Enter ICAO airport designator
Station Type Date Time Source
EGGD METAR 2019/08/19 22:20 UTC NOAA

EGGD 192220Z AUTO 23007KT 9999 BKN018 OVC041 13/11 Q1019


Station Type Date Time Source
EGGD Decoded METAR 2019/08/19 22:20 UTC NOAA

Bristol / Lulsgate , United Kingdom (EGGD) 51-23N 002-43W
Aug 19, 2019 - 06:20 PM EDT / 2019.08.19 2220 UTC
Wind: from the SW (230 degrees) at 8 MPH (7 KT):0
Visibility: greater than 7 mile(s):0
Sky conditions: overcast
Temperature: 55 F (13 C)
Dew Point: 51 F (11 C)
Relative Humidity: 87%
Pressure (altimeter): 30.09 in. Hg (1019 hPa)
ob: EGGD 192220Z AUTO 23007KT 9999 BKN018 OVC041 13/11 Q1019
cycle: 22

Station Type Date Time Source
EGGD TAF 2019/08/19 18:09 UTC NOAA

TAF EGGD 191659Z 1918/2018 25013KT 9999 SCT025 PROB30
TEMPO 1918/2018 7000 SHRA

Example: see airport list